createdAt,value
2023-02-27T00:01:47.112Z,100666.20
2023-02-27T00:04:15.798Z,100670.13
2023-02-27T00:06:43.993Z,100678.59
2023-02-27T00:09:12.686Z,100676.19
2023-02-27T00:11:40.900Z,100669.48
2023-02-27T00:14:09.706Z,100671.42
2023-02-27T00:16:37.993Z,100677.30
2023-02-27T00:19:10.047Z,100677.45
2023-02-27T00:21:38.260Z,100682.54
2023-02-27T00:24:11.107Z,100678.35
2023-02-27T00:26:39.484Z,100677.32
2023-02-27T00:29:08.173Z,100679.18
2023-02-27T00:31:36.583Z,100686.48
2023-02-27T00:34:04.852Z,100690.98
2023-02-27T00:36:33.211Z,100687.48
2023-02-27T00:39:01.784Z,100689.45
2023-02-27T00:41:30.071Z,100691.38
2023-02-27T00:44:01.734Z,100698.33
2023-02-27T00:46:30.448Z,100702.39
2023-02-27T00:49:00.663Z,100706.61
2023-02-27T00:51:29.237Z,100704.58
2023-02-27T00:53:57.703Z,100702.52
2023-02-27T00:56:25.971Z,100708.49
2023-02-27T00:58:54.290Z,100705.90
2023-02-27T01:01:23.688Z,100701.73
2023-02-27T01:03:52.445Z,100705.98
2023-02-27T01:06:21.235Z,100713.01
2023-02-27T01:08:49.408Z,100702.23
2023-02-27T01:11:20.416Z,100696.09
2023-02-27T01:13:48.937Z,100692.30
2023-02-27T01:16:18.359Z,100692.69
2023-02-27T01:18:48.809Z,100686.58
2023-02-27T01:21:17.965Z,100678.20
2023-02-27T01:23:51.061Z,100695.46
2023-02-27T01:26:20.831Z,100704.02
2023-02-27T01:28:49.052Z,100713.36
2023-02-27T01:31:17.216Z,100721.75
2023-02-27T01:33:46.130Z,100733.30
2023-02-27T01:36:14.794Z,100734.27
2023-02-27T01:38:44.021Z,100736.27
2023-02-27T01:41:13.315Z,100740.30
2023-02-27T01:44:01.960Z,100736.71
2023-02-27T01:46:32.585Z,100727.77
2023-02-27T01:49:04.537Z,100724.64
2023-02-27T01:51:40.349Z,100729.52
2023-02-27T01:54:09.954Z,100731.43
2023-02-27T01:56:38.063Z,100730.20
2023-02-27T01:59:07.824Z,100719.80
2023-02-27T02:01:36.643Z,100721.79
2023-02-27T02:04:26.592Z,100729.22
2023-02-27T02:07:01.542Z,100741.30
2023-02-27T02:09:29.879Z,100745.52
2023-02-27T02:11:58.171Z,100744.14
2023-02-27T02:14:30.023Z,100750.17
2023-02-27T02:17:31.268Z,100757.59
2023-02-27T02:20:37.431Z,100754.43
2023-02-27T02:23:22.954Z,100751.02
2023-02-27T02:26:33.153Z,100759.36
2023-02-27T02:29:15.005Z,100763.97
2023-02-27T02:32:02.484Z,100766.20
2023-02-27T02:34:41.224Z,100778.02
2023-02-27T02:37:37.458Z,100779.17
2023-02-27T02:40:07.147Z,100776.34
2023-02-27T02:42:50.565Z,100772.34
2023-02-27T02:45:53.323Z,100769.35
2023-02-27T02:48:27.216Z,100770.33
2023-02-27T02:51:05.020Z,100781.95
2023-02-27T02:53:52.743Z,100797.22
2023-02-27T02:56:50.168Z,100808.83
2023-02-27T02:59:32.996Z,100828.94
2023-02-27T03:02:10.442Z,100848.80
2023-02-27T03:04:49.833Z,100855.91
2023-02-27T03:07:31.783Z,100859.10
2023-02-27T03:10:08.944Z,100858.39
2023-02-27T03:12:40.285Z,100850.72
2023-02-27T03:15:20.245Z,100844.59
2023-02-27T03:18:01.594Z,100836.79
2023-02-27T03:20:40.321Z,100830.16
2023-02-27T03:23:11.683Z,100830.86
2023-02-27T03:25:46.493Z,100827.54
2023-02-27T03:28:21.285Z,100821.64
2023-02-27T03:31:10.015Z,100816.60
2023-02-27T03:33:45.982Z,100814.52
2023-02-27T03:36:27.834Z,100810.33
2023-02-27T03:39:46.632Z,100806.48
2023-02-27T03:42:36.688Z,100810.84
2023-02-27T03:45:37.640Z,100819.74
2023-02-27T03:48:07.022Z,100821.62
2023-02-27T03:50:36.318Z,100815.19
2023-02-27T03:53:06.731Z,100811.23
2023-02-27T03:55:36.626Z,100809.94
2023-02-27T03:58:04.695Z,100809.96
2023-02-27T04:00:33.018Z,100806.98
2023-02-27T04:03:03.095Z,100806.81
2023-02-27T04:05:33.791Z,100805.62
2023-02-27T04:08:09.382Z,100805.92
2023-02-27T04:11:00.213Z,100805.62
2023-02-27T04:13:40.278Z,100806.30
2023-02-27T04:16:17.916Z,100808.69
2023-02-27T04:19:05.048Z,100808.28
2023-02-27T04:21:52.133Z,100803.63
2023-02-27T04:24:39.437Z,100799.39
2023-02-27T04:27:36.309Z,100798.20
2023-02-27T04:30:28.609Z,100793.88
2023-02-27T04:33:28.561Z,100787.67
2023-02-27T04:36:27.953Z,100790.70
2023-02-27T04:39:05.141Z,100788.83
2023-02-27T04:41:39.808Z,100792.72
2023-02-27T04:44:08.454Z,100801.35
2023-02-27T04:46:37.595Z,100809.09
2023-02-27T04:49:09.010Z,100810.92
2023-02-27T04:51:40.609Z,100820.52
2023-02-27T04:54:12.223Z,100826.37
2023-02-27T04:56:44.773Z,100833.98
2023-02-27T04:59:18.520Z,100841.06
2023-02-27T05:02:09.092Z,100843.06
2023-02-27T05:04:38.834Z,100851.52
2023-02-27T05:07:09.701Z,100858.63
2023-02-27T05:09:53.812Z,100862.17
2023-02-27T05:12:52.908Z,100865.80
2023-02-27T05:15:23.241Z,100877.73
2023-02-27T05:17:57.695Z,100883.29
2023-02-27T05:20:27.865Z,100894.38
2023-02-27T05:23:14.676Z,100901.17
2023-02-27T05:26:02.713Z,100906.84
2023-02-27T05:28:34.877Z,100912.27
2023-02-27T05:31:14.273Z,100917.04
2023-02-27T05:34:02.590Z,100920.92
2023-02-27T05:36:37.074Z,100918.70
2023-02-27T05:39:07.062Z,100920.68
2023-02-27T05:41:51.098Z,100921.21
2023-02-27T05:44:23.848Z,100925.55
2023-02-27T05:47:13.119Z,100922.58
2023-02-27T05:49:47.877Z,100919.95
2023-02-27T05:52:17.945Z,100924.29
2023-02-27T05:54:53.996Z,100928.05
2023-02-27T05:57:25.798Z,100929.55
2023-02-27T06:00:17.911Z,100925.38
2023-02-27T06:02:46.333Z,100917.56
2023-02-27T06:05:15.702Z,100914.50
2023-02-27T06:07:44.376Z,100916.73
2023-02-27T06:10:16.954Z,100919.58
2023-02-27T06:12:46.872Z,100918.59
2023-02-27T06:15:15.051Z,100920.59
2023-02-27T06:17:43.425Z,100922.17
2023-02-27T06:20:12.521Z,100921.74
2023-02-27T06:22:40.704Z,100925.45
2023-02-27T06:25:10.111Z,100925.66
2023-02-27T06:27:38.781Z,100928.47
2023-02-27T06:30:08.594Z,100933.05
2023-02-27T06:32:36.739Z,100932.94
2023-02-27T06:35:06.970Z,100930.74
2023-02-27T06:37:37.639Z,100932.31
2023-02-27T06:40:11.593Z,100932.80
2023-02-27T06:42:41.648Z,100934.02
2023-02-27T06:45:10.696Z,100936.43
2023-02-27T06:47:41.791Z,100937.89
2023-02-27T06:50:11.600Z,100934.27
2023-02-27T06:52:42.159Z,100933.12
2023-02-27T06:55:11.536Z,100931.27
2023-02-27T06:57:39.614Z,100932.25
2023-02-27T07:00:10.225Z,100940.48
2023-02-27T07:02:39.672Z,100941.13
2023-02-27T07:05:09.044Z,100943.88
2023-02-27T07:07:38.760Z,100942.23
2023-02-27T07:10:13.241Z,100936.78
2023-02-27T07:12:41.763Z,100935.68
2023-02-27T07:15:11.674Z,100932.09
2023-02-27T07:17:41.156Z,100932.80
2023-02-27T07:20:13.200Z,100933.99
2023-02-27T07:22:42.852Z,100935.85
2023-02-27T07:25:11.135Z,100936.07
2023-02-27T07:27:39.635Z,100932.64
2023-02-27T07:30:09.120Z,100935.67
2023-02-27T07:32:39.036Z,100929.34
2023-02-27T07:35:08.322Z,100934.41
2023-02-27T07:45:35.652Z,100927.66
2023-02-27T07:48:04.028Z,100931.16
2023-02-27T07:50:32.200Z,100932.48
2023-02-27T07:53:00.483Z,100931.88
2023-02-27T07:55:28.966Z,100931.52
2023-02-27T07:57:59.105Z,100927.56
2023-02-27T08:00:28.917Z,100932.90
2023-02-27T08:02:56.992Z,100940.30
2023-02-27T08:05:25.171Z,100942.49
2023-02-27T08:07:53.133Z,100945.69
2023-02-27T08:10:21.515Z,100941.95
2023-02-27T08:12:49.673Z,100942.23
2023-02-27T08:15:17.911Z,100938.21
2023-02-27T08:17:47.047Z,100934.40
2023-02-27T08:20:15.252Z,100934.33
2023-02-27T08:22:43.606Z,100938.22
2023-02-27T08:25:12.797Z,100945.43
2023-02-27T08:27:41.042Z,100951.34
2023-02-27T08:30:10.581Z,100959.05
2023-02-27T08:32:39.570Z,100964.39
2023-02-27T08:35:09.280Z,100959.39
2023-02-27T08:37:37.797Z,100957.26
2023-02-27T08:40:07.445Z,100961.77
2023-02-27T08:42:37.495Z,100957.98
2023-02-27T08:45:09.374Z,100956.30
2023-02-27T08:47:37.980Z,100953.32
2023-02-27T08:50:06.944Z,100955.44
2023-02-27T08:52:35.620Z,100965.17
2023-02-27T08:55:04.286Z,100968.02
2023-02-27T08:57:32.368Z,100961.77
2023-02-27T09:00:00.629Z,100958.86
2023-02-27T09:02:29.043Z,100953.32
2023-02-27T09:04:57.468Z,100956.51
2023-02-27T09:07:25.689Z,100958.11
2023-02-27T09:09:54.285Z,100957.34
2023-02-27T09:12:27.375Z,100952.96
2023-02-27T09:14:55.441Z,100950.25
2023-02-27T09:17:29.271Z,100947.21
2023-02-27T09:19:58.332Z,100946.92
2023-02-27T09:22:26.717Z,100946.67
2023-02-27T09:24:54.995Z,100951.26
2023-02-27T09:27:24.133Z,100960.21
2023-02-27T09:29:56.598Z,100961.83
2023-02-27T09:32:25.653Z,100960.88
2023-02-27T09:34:53.916Z,100961.27
2023-02-27T09:37:24.985Z,100963.86
2023-02-27T09:39:53.586Z,100965.44
2023-02-27T09:42:27.488Z,100968.29
2023-02-27T09:45:04.094Z,100974.20
2023-02-27T09:47:43.237Z,100966.58
2023-02-27T09:50:32.814Z,100964.31
2023-02-27T09:53:03.542Z,100957.73
2023-02-27T09:55:35.059Z,100959.83
2023-02-27T09:58:26.311Z,100962.67
2023-02-27T10:00:57.523Z,100961.01
2023-02-27T10:04:00.286Z,100966.42
2023-02-27T10:06:44.367Z,100968.90
2023-02-27T10:09:34.603Z,100968.81
2023-02-27T10:12:10.197Z,100967.80
2023-02-27T10:14:42.692Z,100962.09
2023-02-27T10:17:25.808Z,100959.02
2023-02-27T10:19:54.351Z,100958.25
2023-02-27T10:22:26.830Z,100959.73
2023-02-27T10:33:12.197Z,100944.09
2023-02-27T10:35:41.499Z,100939.05
2023-02-27T10:38:15.123Z,100934.59
2023-02-27T10:40:42.133Z,100934.52
2023-02-27T10:43:10.210Z,100928.72
2023-02-27T10:45:38.876Z,100931.23
2023-02-27T10:48:05.938Z,100936.81
2023-02-27T10:50:35.314Z,100950.53
2023-02-27T10:53:03.412Z,100952.45
2023-02-27T10:55:32.545Z,100949.93
2023-02-27T10:57:59.689Z,100956.85
2023-02-27T11:00:47.465Z,100959.02
2023-02-27T11:03:24.384Z,100970.56
2023-02-27T11:05:58.993Z,100970.66
2023-02-27T11:08:27.806Z,100964.31
2023-02-27T11:11:11.228Z,100967.20
2023-02-27T11:13:41.403Z,100974.08
2023-02-27T11:16:21.774Z,100973.80
2023-02-27T11:18:49.654Z,100971.28
2023-02-27T11:21:28.641Z,100983.70
2023-02-27T11:23:59.808Z,100994.17
2023-02-27T11:26:27.041Z,100991.73
2023-02-27T11:29:11.031Z,100982.16
2023-02-27T11:31:38.256Z,100975.24
2023-02-27T11:34:05.124Z,100973.44
2023-02-27T11:36:44.852Z,100966.61
2023-02-27T11:39:34.987Z,100960.09
2023-02-27T11:42:11.760Z,100961.05
2023-02-27T11:44:50.775Z,100956.27
2023-02-27T11:47:24.321Z,100956.27
2023-02-27T11:50:01.459Z,100960.08
2023-02-27T11:52:50.199Z,100966.41
2023-02-27T11:55:19.741Z,100963.88
2023-02-27T11:57:49.844Z,100955.63
2023-02-27T12:00:32.436Z,100957.52
2023-02-27T12:03:26.404Z,100948.63
2023-02-27T12:05:59.270Z,100939.70
2023-02-27T12:08:46.729Z,100942.29
2023-02-27T12:11:40.521Z,100942.39
2023-02-27T12:14:22.447Z,100960.10
2023-02-27T12:16:53.664Z,100967.52
2023-02-27T12:19:21.835Z,100965.63
2023-02-27T12:21:53.841Z,100972.41
2023-02-27T12:24:43.763Z,100977.48
2023-02-27T12:27:30.757Z,100984.78
2023-02-27T12:30:05.321Z,100987.90
2023-02-27T12:32:42.591Z,100992.95
2023-02-27T12:35:29.353Z,100997.80
2023-02-27T12:37:56.697Z,100997.36
2023-02-27T12:40:31.269Z,100999.41
2023-02-27T12:43:22.050Z,100998.90
2023-02-27T12:45:56.872Z,101003.33
2023-02-27T12:49:02.427Z,101008.57
2023-02-27T12:51:42.335Z,101009.46
2023-02-27T12:54:22.295Z,101012.27
2023-02-27T12:57:04.842Z,101015.56
2023-02-27T12:59:47.301Z,101009.60
2023-02-27T13:02:58.924Z,101010.02
2023-02-27T13:05:44.333Z,101009.66
2023-02-27T13:08:39.186Z,101012.73
2023-02-27T13:11:16.878Z,101011.86
2023-02-27T13:13:47.531Z,101013.42
2023-02-27T13:16:26.328Z,101007.36
2023-02-27T13:19:19.399Z,101005.31
2023-02-27T13:22:05.595Z,100999.59
2023-02-27T13:24:33.808Z,100999.88
2023-02-27T13:27:15.514Z,101003.36
2023-02-27T13:29:46.944Z,101002.40
2023-02-27T13:32:42.644Z,100999.67
2023-02-27T13:35:27.350Z,100994.79
2023-02-27T13:38:05.365Z,100992.80
2023-02-27T13:40:34.392Z,100998.44
2023-02-27T13:43:25.370Z,101001.98
2023-02-27T13:45:57.570Z,101005.07
2023-02-27T13:48:33.800Z,101008.26
2023-02-27T13:51:00.671Z,101007.65
2023-02-27T13:53:27.861Z,101014.30
2023-02-27T13:56:18.223Z,101024.58
2023-02-27T13:58:45.988Z,101035.91
2023-02-27T14:01:26.849Z,101037.16
2023-02-27T14:03:59.035Z,101035.63
2023-02-27T14:06:25.813Z,101031.48
2023-02-27T14:09:08.771Z,101033.52
2023-02-27T14:11:41.779Z,101041.31
2023-02-27T14:14:36.075Z,101044.89
2023-02-27T14:17:05.985Z,101044.70
2023-02-27T14:19:47.505Z,101048.15
2023-02-27T14:22:14.169Z,101053.69
2023-02-27T14:25:00.982Z,101050.41
2023-02-27T14:27:31.746Z,101049.83
2023-02-27T14:30:01.714Z,101054.27
2023-02-27T14:32:33.760Z,101053.66
2023-02-27T14:35:00.694Z,101052.20
2023-02-27T14:37:27.258Z,101047.36
2023-02-27T14:39:54.533Z,101048.83
2023-02-27T14:42:33.711Z,101049.63
2023-02-27T14:45:00.815Z,101053.01
2023-02-27T14:47:32.014Z,101052.45
2023-02-27T14:49:58.788Z,101055.79
2023-02-27T14:52:27.757Z,101059.73
2023-02-27T14:55:18.225Z,101060.52
2023-02-27T14:57:57.531Z,101062.73
2023-02-27T15:00:50.017Z,101064.52
2023-02-27T15:03:20.464Z,101064.25
2023-02-27T15:05:48.722Z,101068.78
2023-02-27T15:08:27.853Z,101074.86
2023-02-27T15:10:55.238Z,101077.54
2023-02-27T15:13:31.909Z,101082.10
2023-02-27T15:16:25.459Z,101083.92
2023-02-27T15:18:54.172Z,101091.96
2023-02-27T15:21:22.615Z,101090.27
2023-02-27T15:24:01.228Z,101090.04
2023-02-27T15:26:37.203Z,101094.27
2023-02-27T15:29:05.072Z,101092.39
2023-02-27T15:31:32.209Z,101094.13
2023-02-27T15:34:00.221Z,101095.38
2023-02-27T15:36:34.511Z,101095.05
2023-02-27T15:39:07.800Z,101090.77
2023-02-27T15:41:35.697Z,101092.02
2023-02-27T15:44:03.075Z,101096.08
2023-02-27T15:46:32.491Z,101100.47
2023-02-27T15:48:59.209Z,101100.52
2023-02-27T15:51:26.456Z,101102.05
2023-02-27T15:53:54.506Z,101100.45
2023-02-27T15:56:26.102Z,101103.39
2023-02-27T15:58:58.334Z,101109.28
2023-02-27T16:01:34.579Z,101105.97
2023-02-27T16:04:04.621Z,101109.81
2023-02-27T16:06:37.713Z,101111.01
2023-02-27T16:09:06.637Z,101110.02
2023-02-27T16:11:38.156Z,101115.63
2023-02-27T16:14:05.582Z,101112.10
2023-02-27T16:16:36.949Z,101114.48
2023-02-27T16:19:20.371Z,101117.15
2023-02-27T16:22:17.009Z,101118.73
2023-02-27T16:24:44.152Z,101121.40
2023-02-27T16:27:29.360Z,101124.47
2023-02-27T16:30:01.986Z,101126.37
2023-02-27T16:32:40.978Z,101130.08
2023-02-27T16:35:16.193Z,101132.71
2023-02-27T16:37:44.562Z,101137.94
2023-02-27T16:40:12.711Z,101136.33
2023-02-27T16:42:40.190Z,101145.15
2023-02-27T16:45:10.568Z,101139.17
2023-02-27T16:47:37.500Z,101140.65
2023-02-27T16:50:13.624Z,101144.34
2023-02-27T16:52:42.484Z,101145.71
2023-02-27T16:55:11.414Z,101145.86
2023-02-27T16:57:39.884Z,101152.73
2023-02-27T17:07:42.844Z,101156.95
2023-02-27T17:10:16.638Z,101156.80
2023-02-27T17:12:48.199Z,101154.62
2023-02-27T17:15:16.676Z,101153.98
2023-02-27T17:17:45.022Z,101156.28
2023-02-27T17:20:13.877Z,101158.98
2023-02-27T17:22:46.310Z,101159.40
2023-02-27T17:25:14.439Z,101160.01
2023-02-27T17:27:43.640Z,101167.91
2023-02-27T17:30:12.360Z,101170.63
2023-02-27T17:32:40.395Z,101172.25
2023-02-27T17:35:09.068Z,101172.36
2023-02-27T17:37:38.499Z,101176.40
2023-02-27T17:40:08.318Z,101178.02
2023-02-27T17:42:37.303Z,101173.40
2023-02-27T17:45:06.569Z,101174.80
2023-02-27T17:47:35.564Z,101175.02
2023-02-27T17:50:05.364Z,101175.05
2023-02-27T17:52:37.183Z,101174.92
2023-02-27T17:55:06.311Z,101181.73
2023-02-27T17:57:36.069Z,101188.21
2023-02-27T18:00:06.403Z,101197.10
2023-02-27T18:02:37.421Z,101206.64
2023-02-27T18:05:06.706Z,101207.20
2023-02-27T18:07:35.011Z,101211.67
2023-02-27T18:10:05.695Z,101209.94
2023-02-27T18:12:34.439Z,101210.11
2023-02-27T18:15:07.224Z,101206.75
2023-02-27T18:17:36.724Z,101203.07
2023-02-27T18:20:05.586Z,101205.34
2023-02-27T18:22:34.389Z,101210.14
2023-02-27T18:25:02.960Z,101212.98
2023-02-27T18:27:32.960Z,101214.07
2023-02-27T18:30:02.939Z,101218.55
2023-02-27T18:32:34.088Z,101221.67
2023-02-27T18:35:02.288Z,101222.53
2023-02-27T18:37:30.979Z,101221.95
2023-02-27T18:39:59.113Z,101227.13
2023-02-27T18:42:31.533Z,101226.96
2023-02-27T18:45:00.053Z,101225.06
2023-02-27T18:47:30.282Z,101226.45
2023-02-27T18:49:58.808Z,101236.73
2023-02-27T18:52:28.992Z,101241.23
2023-02-27T18:54:57.537Z,101236.23
2023-02-27T18:57:31.549Z,101237.45
2023-02-27T18:59:59.865Z,101237.34
2023-02-27T19:02:28.465Z,101235.33
2023-02-27T19:04:56.769Z,101240.40
2023-02-27T19:07:25.670Z,101245.70
2023-02-27T19:09:57.216Z,101244.83
2023-02-27T19:12:25.529Z,101241.75
2023-02-27T19:14:57.263Z,101242.63
2023-02-27T19:17:25.943Z,101247.19
2023-02-27T19:19:54.315Z,101253.83
2023-02-27T19:22:22.802Z,101257.46
2023-02-27T19:24:51.022Z,101265.71
2023-02-27T19:27:19.001Z,101265.90
2023-02-27T19:29:46.996Z,101271.59
2023-02-27T19:32:15.537Z,101274.69
2023-02-27T19:34:43.514Z,101278.13
2023-02-27T19:37:11.889Z,101278.98
2023-02-27T19:39:40.145Z,101277.73
2023-02-27T19:42:08.136Z,101279.17
2023-02-27T19:44:36.193Z,101288.55
2023-02-27T19:47:04.540Z,101286.46
2023-02-27T19:49:32.977Z,101287.15
2023-02-27T19:52:01.071Z,101291.15
2023-02-27T19:54:30.090Z,101288.40
2023-02-27T19:56:58.316Z,101293.13
2023-02-27T19:59:27.324Z,101296.50
2023-02-27T20:01:55.476Z,101296.41
2023-02-27T20:04:23.746Z,101302.85
2023-02-27T20:06:53.812Z,101304.40
2023-02-27T20:09:23.337Z,101311.66
2023-02-27T20:11:54.004Z,101315.02
2023-02-27T20:14:25.135Z,101325.07
2023-02-27T20:16:54.280Z,101324.38
2023-02-27T20:19:22.819Z,101324.39
2023-02-27T20:21:52.395Z,101322.07
2023-02-27T20:24:22.270Z,101320.14
2023-02-27T20:26:59.108Z,101321.77
2023-02-27T20:29:27.959Z,101320.42
2023-02-27T20:31:57.394Z,101327.42
2023-02-27T20:34:26.800Z,101334.06
2023-02-27T20:36:55.491Z,101334.64
2023-02-27T20:39:23.893Z,101341.81
2023-02-27T20:41:52.251Z,101344.39
2023-02-27T20:44:20.855Z,101346.08
2023-02-27T20:46:49.557Z,101346.23
2023-02-27T20:49:19.534Z,101345.04
2023-02-27T20:51:48.318Z,101342.42
2023-02-27T20:54:20.632Z,101339.67
2023-02-27T20:56:54.753Z,101336.80
2023-02-27T20:59:24.854Z,101340.98
2023-02-27T21:01:53.387Z,101346.08
2023-02-27T21:04:45.985Z,101347.00
2023-02-27T21:07:17.122Z,101348.02
2023-02-27T21:09:45.874Z,101346.63
2023-02-27T21:12:14.124Z,101349.75
2023-02-27T21:14:45.441Z,101347.70
2023-02-27T21:17:13.925Z,101351.02
2023-02-27T21:19:44.436Z,101348.93
2023-02-27T21:22:14.381Z,101346.02
2023-02-27T21:24:42.668Z,101345.55
2023-02-27T21:27:10.739Z,101353.36
2023-02-27T21:29:39.226Z,101358.80
2023-02-27T21:32:07.809Z,101359.52
2023-02-27T21:34:36.129Z,101360.56
2023-02-27T21:37:06.555Z,101362.82
2023-02-27T21:39:50.518Z,101369.25
2023-02-27T21:42:18.780Z,101377.39
2023-02-27T21:44:47.159Z,101381.06
2023-02-27T21:47:17.186Z,101379.64
2023-02-27T21:49:45.346Z,101389.84
2023-02-27T21:52:13.424Z,101382.77
2023-02-27T21:54:41.726Z,101383.98
2023-02-27T21:57:10.118Z,101378.14
2023-02-27T21:59:38.990Z,101371.44
2023-02-27T22:02:07.332Z,101373.41
2023-02-27T22:04:36.000Z,101376.91
2023-02-27T22:07:04.144Z,101384.73
2023-02-27T22:09:32.725Z,101385.80
2023-02-27T22:12:02.432Z,101395.05
2023-02-27T22:14:30.756Z,101403.71
2023-02-27T22:16:59.317Z,101406.34
2023-02-27T22:19:27.558Z,101411.52
2023-02-27T22:21:55.675Z,101416.52
2023-02-27T22:24:23.992Z,101423.11
2023-02-27T22:26:52.262Z,101432.30
2023-02-27T22:29:20.499Z,101437.85
2023-02-27T22:31:48.836Z,101440.98
2023-02-27T22:34:18.779Z,101441.81
2023-02-27T22:36:48.698Z,101439.94
2023-02-27T22:39:18.143Z,101442.73
2023-02-27T22:41:46.299Z,101446.76
2023-02-27T22:44:15.010Z,101448.39
2023-02-27T22:46:45.251Z,101448.77
2023-02-27T22:49:20.832Z,101452.75
2023-02-27T22:51:51.188Z,101447.55
2023-02-27T22:54:21.338Z,101445.79
2023-02-27T22:56:51.003Z,101446.55
2023-02-27T22:59:28.261Z,101444.77
2023-02-27T23:01:56.506Z,101432.88
2023-02-27T23:04:24.472Z,101425.85
2023-02-27T23:06:56.717Z,101426.97
2023-02-27T23:09:26.134Z,101427.25
2023-02-27T23:11:55.132Z,101423.46
2023-02-27T23:14:23.927Z,101426.14
2023-02-27T23:16:51.982Z,101427.24
2023-02-27T23:19:21.424Z,101426.85
2023-02-27T23:21:54.781Z,101424.06
2023-02-27T23:24:22.971Z,101429.61
2023-02-27T23:26:52.114Z,101431.35
2023-02-27T23:29:20.285Z,101433.61
2023-02-27T23:31:49.185Z,101436.89
2023-02-27T23:34:18.286Z,101434.70
2023-02-27T23:36:46.580Z,101434.70
2023-02-27T23:39:15.011Z,101434.84
2023-02-27T23:41:43.565Z,101437.26
2023-02-27T23:44:11.610Z,101435.41
2023-02-27T23:46:40.766Z,101444.83
2023-02-27T23:49:08.958Z,101446.05
2023-02-27T23:51:37.302Z,101447.79
2023-02-27T23:54:05.630Z,101451.13
2023-02-27T23:56:34.994Z,101450.34
2023-02-27T23:59:04.943Z,101448.44
